Time;durP1;ratioP1;P1;durP2;ratioP2;P2;SDS_P1;SDS_P2;PMS_P1;PMS_P2;Temp;Humidity;BMP_temperature;BMP_pressure;BME280_temperature;BME280_humidity;BME280_pressure;Samples;Min_cycle;Max_cycle;Signal;HPM_P1;HPM_P2
2021/07/21 00:00:12;;;;;;;;;;;10.60;91.40;;;;;;5095011;28;20357;-65
2021/07/21 00:02:39;;;;;;;;;;;10.70;91.00;;;;;;5094755;28;19961;-65
2021/07/21 00:05:10;;;;;;;;;;;10.80;90.90;;;;;;5094818;28;19908;-64
2021/07/21 00:07:37;;;;;;;;;;;10.90;90.90;;;;;;5094454;28;20355;-64
2021/07/21 00:10:04;;;;;;;;;;;11.00;90.70;;;;;;5093614;28;19915;-65
2021/07/21 00:15:16;;;;;;;;;;;11.10;90.50;;;;;;5094609;28;19915;-65
2021/07/21 00:17:44;;;;;;;;;;;11.20;90.40;;;;;;5094101;28;19915;-64
2021/07/21 00:20:11;;;;;;;;;;;11.30;90.60;;;;;;5094278;28;20412;-65
2021/07/21 00:22:40;;;;;;;;;;;11.30;90.60;;;;;;5094360;28;19924;-65
2021/07/21 00:25:09;;;;;;;;;;;11.40;90.40;;;;;;5094167;28;19940;-65
2021/07/21 00:27:36;;;;;;;;;;;11.50;90.20;;;;;;5094158;28;20010;-66
2021/07/21 00:30:07;;;;;;;;;;;11.60;90.40;;;;;;5093716;28;19908;-65
2021/07/21 00:32:33;;;;;;;;;;;11.60;90.20;;;;;;5093972;28;20347;-65
2021/07/21 00:35:00;;;;;;;;;;;11.60;90.10;;;;;;5094106;28;19995;-65
2021/07/21 00:37:27;;;;;;;;;;;11.60;90.20;;;;;;5093908;28;19961;-65
2021/07/21 00:39:53;;;;;;;;;;;11.60;90.00;;;;;;5093488;28;19957;-65
2021/07/21 00:42:20;;;;;;;;;;;11.60;90.40;;;;;;5093618;28;19908;-65
2021/07/21 00:44:47;;;;;;;;;;;11.70;90.60;;;;;;5093679;28;19926;-66
2021/07/21 00:47:14;;;;;;;;;;;11.80;90.60;;;;;;5126447;27;20311;-65
2021/07/21 00:49:41;;;;;;;;;;;11.80;90.50;;;;;;5092329;28;19939;-67
2021/07/21 00:52:08;;;;;;;;;;;11.80;90.60;;;;;;5093672;28;19919;-65
2021/07/21 00:54:35;;;;;;;;;;;11.90;90.80;;;;;;5093725;28;20444;-65
2021/07/21 00:57:03;;;;;;;;;;;12.00;91.20;;;;;;5093653;28;19970;-65
2021/07/21 00:59:33;;;;;;;;;;;12.10;91.00;;;;;;5093626;28;19947;-65
2021/07/21 01:02:00;;;;;;;;;;;12.20;91.10;;;;;;5093426;28;19908;-66
2021/07/21 01:04:32;;;;;;;;;;;12.30;91.30;;;;;;5093004;28;20312;-66
2021/07/21 01:06:59;;;;;;;;;;;12.30;91.00;;;;;;5093681;28;19916;-65
2021/07/21 01:09:26;;;;;;;;;;;12.50;90.40;;;;;;5093277;28;19908;-65
2021/07/21 01:11:56;;;;;;;;;;;12.50;90.30;;;;;;5093147;28;19908;-64
2021/07/21 01:14:28;;;;;;;;;;;12.50;90.70;;;;;;5093376;28;19915;-66
2021/07/21 01:16:59;;;;;;;;;;;12.40;90.80;;;;;;5093118;28;20003;-67
2021/07/21 01:19:34;;;;;;;;;;;12.40;90.40;;;;;;5093211;28;19908;-65
2021/07/21 01:22:13;;;;;;;;;;;12.30;90.40;;;;;;5092978;28;20019;-65
2021/07/21 01:24:43;;;;;;;;;;;12.30;91.20;;;;;;5093029;28;19915;-65
2021/07/21 01:27:27;;;;;;;;;;;12.30;90.60;;;;;;5093149;28;19912;-65
2021/07/21 01:29:55;;;;;;;;;;;12.40;90.90;;;;;;5092903;28;19908;-66
2021/07/21 01:32:25;;;;;;;;;;;12.40;91.20;;;;;;5093236;28;19912;-67
2021/07/21 01:34:53;;;;;;;;;;;12.40;90.40;;;;;;5093229;28;19911;-67
2021/07/21 01:37:20;;;;;;;;;;;12.30;90.60;;;;;;5092938;28;19939;-67
2021/07/21 01:39:47;;;;;;;;;;;12.40;90.70;;;;;;5092005;28;20347;-64
2021/07/21 01:42:16;;;;;;;;;;;12.40;90.90;;;;;;5092849;28;19909;-64
2021/07/21 01:44:43;;;;;;;;;;;12.40;90.60;;;;;;5092731;28;19920;-65
2021/07/21 01:47:11;;;;;;;;;;;12.40;91.10;;;;;;5092883;28;19907;-65
2021/07/21 01:49:39;;;;;;;;;;;12.50;91.20;;;;;;5092579;28;19912;-65
2021/07/21 01:52:11;;;;;;;;;;;12.50;90.80;;;;;;5092596;28;20385;-65
2021/07/21 01:54:38;;;;;;;;;;;12.50;90.90;;;;;;5092584;28;19915;-64
2021/07/21 01:57:05;;;;;;;;;;;12.50;90.20;;;;;;5092541;28;19927;-64
2021/07/21 01:59:33;;;;;;;;;;;12.50;90.70;;;;;;5092373;28;19908;-66
2021/07/21 02:02:01;;;;;;;;;;;12.50;89.90;;;;;;5092534;28;19954;-66
2021/07/21 02:04:28;;;;;;;;;;;12.50;90.30;;;;;;5092722;28;20415;-65
2021/07/21 02:06:55;;;;;;;;;;;12.60;90.60;;;;;;5092617;28;19912;-65
2021/07/21 02:09:23;;;;;;;;;;;12.60;90.30;;;;;;5092267;28;19948;-65
2021/07/21 02:11:50;;;;;;;;;;;12.50;90.70;;;;;;5092159;28;20015;-65
2021/07/21 02:14:17;;;;;;;;;;;12.50;90.90;;;;;;5091750;28;19915;-64
2021/07/21 02:16:43;;;;;;;;;;;12.50;90.60;;;;;;5091934;28;19962;-64
2021/07/21 02:19:10;;;;;;;;;;;12.50;90.60;;;;;;5092342;28;20362;-65
2021/07/21 02:21:38;;;;;;;;;;;12.50;90.50;;;;;;5092106;28;20311;-65
2021/07/21 02:24:05;;;;;;;;;;;12.60;90.50;;;;;;5092263;28;19908;-64
2021/07/21 02:26:35;;;;;;;;;;;12.50;90.10;;;;;;5092534;28;19943;-64
2021/07/21 02:29:02;;;;;;;;;;;12.50;90.00;;;;;;5092300;28;19915;-64
2021/07/21 02:31:30;;;;;;;;;;;12.50;90.00;;;;;;5092384;28;20015;-65
2021/07/21 02:33:58;;;;;;;;;;;12.60;90.10;;;;;;5096012;28;19908;-64
2021/07/21 02:36:25;;;;;;;;;;;12.70;89.30;;;;;;5096150;28;20258;-65
2021/07/21 02:38:52;;;;;;;;;;;12.70;89.40;;;;;;5096225;28;19908;-64
2021/07/21 02:41:19;;;;;;;;;;;12.70;89.20;;;;;;5096057;28;19959;-65
2021/07/21 02:43:46;;;;;;;;;;;12.70;88.30;;;;;;5095812;28;19920;-64
2021/07/21 02:46:12;;;;;;;;;;;12.90;88.00;;;;;;5096063;28;19908;-65
2021/07/21 02:48:42;;;;;;;;;;;13.00;87.40;;;;;;5095893;28;19993;-66
2021/07/21 02:51:10;;;;;;;;;;;12.90;87.80;;;;;;5096016;28;19907;-65
2021/07/21 02:53:39;;;;;;;;;;;12.90;89.10;;;;;;5094345;28;20351;-64
2021/07/21 02:56:10;;;;;;;;;;;13.00;86.90;;;;;;5096149;28;19963;-65
2021/07/21 02:58:55;;;;;;;;;;;13.00;87.60;;;;;;5096056;28;19914;-66
2021/07/21 03:01:23;;;;;;;;;;;12.90;88.60;;;;;;5095859;28;19908;-64
2021/07/21 03:03:50;;;;;;;;;;;13.00;88.60;;;;;;5095616;28;20434;-65
2021/07/21 03:06:17;;;;;;;;;;;12.90;88.40;;;;;;5094481;28;19908;-64
2021/07/21 03:08:45;;;;;;;;;;;12.80;88.20;;;;;;5095742;28;20359;-64
2021/07/21 03:11:12;;;;;;;;;;;12.90;89.00;;;;;;5095778;28;19908;-64
2021/07/21 03:13:53;;;;;;;;;;;12.90;88.60;;;;;;5095806;28;20335;-65
2021/07/21 03:16:27;;;;;;;;;;;12.90;88.40;;;;;;5095710;28;19946;-64
2021/07/21 03:18:57;;;;;;;;;;;12.80;89.60;;;;;;5095740;28;19950;-64
2021/07/21 03:21:25;;;;;;;;;;;12.80;88.90;;;;;;5095758;28;19954;-64
2021/07/21 03:23:51;;;;;;;;;;;12.80;90.10;;;;;;5095069;28;19912;-65
2021/07/21 03:26:19;;;;;;;;;;;12.80;89.50;;;;;;5095433;28;19912;-64
2021/07/21 03:28:46;;;;;;;;;;;12.80;90.00;;;;;;5095457;28;20373;-63
2021/07/21 03:31:13;;;;;;;;;;;12.80;89.30;;;;;;5095392;28;19908;-64
2021/07/21 03:33:42;;;;;;;;;;;12.90;89.60;;;;;;5094993;28;19947;-64
2021/07/21 03:36:09;;;;;;;;;;;13.00;88.10;;;;;;5095151;28;19944;-64
2021/07/21 03:38:36;;;;;;;;;;;13.10;88.00;;;;;;5094873;28;19927;-64
2021/07/21 03:41:03;;;;;;;;;;;13.20;88.20;;;;;;5095192;28;19965;-63
2021/07/21 03:43:30;;;;;;;;;;;13.10;87.70;;;;;;5093686;28;20377;-64
2021/07/21 03:45:59;;;;;;;;;;;13.10;89.30;;;;;;5094629;28;19908;-64
2021/07/21 03:48:26;;;;;;;;;;;13.20;90.30;;;;;;5094871;28;19956;-65
2021/07/21 03:50:54;;;;;;;;;;;13.20;89.90;;;;;;5094667;28;19995;-65
2021/07/21 03:53:21;;;;;;;;;;;13.20;89.10;;;;;;5094569;28;20050;-66
2021/07/21 03:55:48;;;;;;;;;;;13.10;88.10;;;;;;5094382;28;20003;-65
2021/07/21 03:58:15;;;;;;;;;;;13.20;87.90;;;;;;5094914;28;19912;-65
2021/07/21 04:00:42;;;;;;;;;;;13.20;87.60;;;;;;5094819;28;19999;-65
2021/07/21 04:03:09;;;;;;;;;;;13.30;87.90;;;;;;5094529;28;20377;-65
2021/07/21 04:05:36;;;;;;;;;;;13.20;84.40;;;;;;5094143;28;19916;-65
2021/07/21 04:08:04;;;;;;;;;;;13.10;85.60;;;;;;5094359;28;20007;-65
2021/07/21 04:10:31;;;;;;;;;;;13.10;86.30;;;;;;5094231;28;19931;-65
2021/07/21 04:12:59;;;;;;;;;;;13.10;86.20;;;;;;5093405;28;19908;-65
2021/07/21 04:15:27;;;;;;;;;;;13.20;85.10;;;;;;5093685;28;19916;-66
2021/07/21 04:17:55;;;;;;;;;;;13.30;85.70;;;;;;5094183;28;19912;-67
2021/07/21 04:20:21;;;;;;;;;;;13.40;86.40;;;;;;5094369;28;19908;-65
2021/07/21 04:22:49;;;;;;;;;;;13.40;87.20;;;;;;5094363;28;19909;-65
2021/07/21 04:25:17;;;;;;;;;;;13.30;86.80;;;;;;5094147;28;19908;-68
2021/07/21 04:27:44;;;;;;;;;;;13.40;87.40;;;;;;5093999;28;19908;-66
2021/07/21 04:30:11;;;;;;;;;;;13.30;86.30;;;;;;5094218;28;19953;-70
2021/07/21 04:32:38;;;;;;;;;;;13.30;87.00;;;;;;5094016;28;19908;-66
2021/07/21 04:35:06;;;;;;;;;;;13.30;85.60;;;;;;5094173;28;19912;-65
2021/07/21 04:37:33;;;;;;;;;;;13.20;85.30;;;;;;5093651;28;19961;-65
2021/07/21 04:40:00;;;;;;;;;;;13.20;86.10;;;;;;5093812;28;19916;-65
2021/07/21 04:42:27;;;;;;;;;;;13.30;86.00;;;;;;5094060;28;19908;-65
2021/07/21 04:44:53;;;;;;;;;;;13.20;85.30;;;;;;5093791;28;19920;-65
2021/07/21 04:47:20;;;;;;;;;;;13.10;85.60;;;;;;5093841;28;19916;-65
2021/07/21 04:49:47;;;;;;;;;;;13.10;86.30;;;;;;5093519;28;19989;-66
2021/07/21 04:52:15;;;;;;;;;;;13.00;86.50;;;;;;5093574;28;19908;-66
2021/07/21 04:54:42;;;;;;;;;;;13.10;87.40;;;;;;5093384;28;20378;-66
2021/07/21 04:57:10;;;;;;;;;;;13.10;87.60;;;;;;5093485;28;19921;-65
2021/07/21 04:59:37;;;;;;;;;;;13.10;85.60;;;;;;5093341;28;19915;-65
2021/07/21 05:02:05;;;;;;;;;;;13.10;84.20;;;;;;5093432;28;19909;-65
2021/07/21 05:04:33;;;;;;;;;;;13.20;83.60;;;;;;5093682;28;19908;-65
2021/07/21 05:07:00;;;;;;;;;;;13.20;84.70;;;;;;5093560;28;19908;-65
2021/07/21 05:09:27;;;;;;;;;;;13.20;82.10;;;;;;5093704;28;19922;-65
2021/07/21 05:11:53;;;;;;;;;;;13.20;82.80;;;;;;5093173;28;20359;-65
2021/07/21 05:14:20;;;;;;;;;;;13.20;82.10;;;;;;5093321;28;20366;-65
2021/07/21 05:16:46;;;;;;;;;;;13.20;82.50;;;;;;5093194;28;20336;-65
2021/07/21 05:19:13;;;;;;;;;;;13.20;82.70;;;;;;5093318;28;19919;-65
2021/07/21 05:21:40;;;;;;;;;;;13.10;81.70;;;;;;5092959;28;19948;-65
2021/07/21 05:24:06;;;;;;;;;;;13.10;81.40;;;;;;5093155;28;20346;-65
2021/07/21 05:26:33;;;;;;;;;;;13.10;80.80;;;;;;5093312;28;19908;-65
2021/07/21 05:29:02;;;;;;;;;;;13.10;80.20;;;;;;5093098;28;20353;-65
2021/07/21 05:31:29;;;;;;;;;;;13.10;80.30;;;;;;5093140;28;19914;-67
2021/07/21 05:33:55;;;;;;;;;;;13.10;80.20;;;;;;5093198;28;19963;-65
2021/07/21 05:36:22;;;;;;;;;;;13.00;79.90;;;;;;5092906;28;19916;-65
2021/07/21 05:38:49;;;;;;;;;;;13.00;80.50;;;;;;5092776;28;19915;-65
2021/07/21 05:41:16;;;;;;;;;;;13.10;81.80;;;;;;5093057;28;19913;-65
2021/07/21 05:43:42;;;;;;;;;;;13.00;82.30;;;;;;5092515;28;19927;-65
2021/07/21 05:46:09;;;;;;;;;;;13.00;83.10;;;;;;5092804;28;20530;-66
2021/07/21 05:48:36;;;;;;;;;;;13.00;82.00;;;;;;5092957;28;20286;-66
2021/07/21 05:51:02;;;;;;;;;;;12.90;82.30;;;;;;5092661;28;19908;-66
2021/07/21 05:53:29;;;;;;;;;;;12.90;82.30;;;;;;5092339;28;19916;-65
2021/07/21 05:55:56;;;;;;;;;;;12.90;81.80;;;;;;5092563;28;19912;-65
2021/07/21 05:58:22;;;;;;;;;;;12.90;82.40;;;;;;5092562;28;19996;-65
2021/07/21 06:00:49;;;;;;;;;;;12.80;81.90;;;;;;5092643;28;19908;-65
2021/07/21 06:03:18;;;;;;;;;;;12.90;82.70;;;;;;5092477;28;19909;-66
2021/07/21 06:05:45;;;;;;;;;;;12.90;83.10;;;;;;5092192;28;20432;-66
2021/07/21 06:08:11;;;;;;;;;;;12.90;83.10;;;;;;5091694;28;19924;-65
2021/07/21 06:10:40;;;;;;;;;;;12.80;83.20;;;;;;5092549;28;20323;-65
2021/07/21 06:13:06;;;;;;;;;;;12.80;83.20;;;;;;5092472;28;19955;-65
2021/07/21 06:15:33;;;;;;;;;;;12.80;83.80;;;;;;5091869;28;19908;-66
2021/07/21 06:18:01;;;;;;;;;;;12.80;84.20;;;;;;5092298;28;20282;-65
2021/07/21 06:20:28;;;;;;;;;;;12.80;84.10;;;;;;5092138;28;19908;-65
2021/07/21 06:22:54;;;;;;;;;;;12.70;83.40;;;;;;5092254;28;19935;-65
2021/07/21 06:25:21;;;;;;;;;;;12.70;83.10;;;;;;5092414;28;19908;-65
2021/07/21 06:27:50;;;;;;;;;;;12.70;84.10;;;;;;5092190;28;19908;-69
2021/07/21 06:30:17;;;;;;;;;;;12.70;84.40;;;;;;5092327;28;19943;-65
2021/07/21 06:32:44;;;;;;;;;;;12.60;84.20;;;;;;5092430;28;19908;-65
2021/07/21 06:35:11;;;;;;;;;;;12.60;84.00;;;;;;5091137;28;19908;-65
2021/07/21 06:37:37;;;;;;;;;;;12.60;83.20;;;;;;5091764;28;19916;-65
2021/07/21 06:40:05;;;;;;;;;;;12.60;84.20;;;;;;5092115;28;19987;-68
2021/07/21 06:42:32;;;;;;;;;;;12.60;84.90;;;;;;5092109;28;20331;-65
2021/07/21 06:45:02;;;;;;;;;;;12.50;85.50;;;;;;5091901;28;20265;-65
2021/07/21 06:47:29;;;;;;;;;;;12.50;85.80;;;;;;5092129;28;20323;-65
2021/07/21 06:49:56;;;;;;;;;;;12.50;85.80;;;;;;5092136;28;19908;-65
2021/07/21 06:52:24;;;;;;;;;;;12.50;86.50;;;;;;5091826;28;19915;-65
2021/07/21 06:54:52;;;;;;;;;;;12.40;87.20;;;;;;5092126;28;19908;-65
2021/07/21 06:57:19;;;;;;;;;;;12.40;87.90;;;;;;5092155;28;19923;-65
2021/07/21 06:59:46;;;;;;;;;;;12.40;88.40;;;;;;5091766;28;19919;-65
2021/07/21 07:02:13;;;;;;;;;;;12.40;88.70;;;;;;5091993;28;19908;-66
2021/07/21 07:04:39;;;;;;;;;;;12.30;89.10;;;;;;5091807;28;19930;-66
2021/07/21 07:07:06;;;;;;;;;;;12.30;89.00;;;;;;5091779;28;20399;-65
2021/07/21 07:09:33;;;;;;;;;;;12.30;89.80;;;;;;5091523;28;19929;-68
2021/07/21 07:11:59;;;;;;;;;;;12.30;89.80;;;;;;5091970;28;19908;-67
2021/07/21 07:14:26;;;;;;;;;;;12.20;89.90;;;;;;5091972;28;19914;-68
2021/07/21 07:16:53;;;;;;;;;;;12.20;90.00;;;;;;5091995;28;20039;-66
2021/07/21 07:19:19;;;;;;;;;;;12.20;90.10;;;;;;5094246;28;19908;-65
2021/07/21 07:21:46;;;;;;;;;;;12.20;90.30;;;;;;5095411;28;19908;-65
2021/07/21 07:24:13;;;;;;;;;;;12.20;90.50;;;;;;5095604;28;20290;-67
2021/07/21 07:26:39;;;;;;;;;;;12.10;90.80;;;;;;5095532;28;20010;-65
2021/07/21 07:29:06;;;;;;;;;;;12.10;91.30;;;;;;5095397;28;19908;-65
2021/07/21 07:31:33;;;;;;;;;;;12.00;91.40;;;;;;5095146;28;19977;-66
2021/07/21 07:33:59;;;;;;;;;;;12.10;91.90;;;;;;5095450;28;19908;-66
2021/07/21 07:36:26;;;;;;;;;;;12.00;92.00;;;;;;5095160;28;20270;-66
2021/07/21 07:38:53;;;;;;;;;;;11.90;92.30;;;;;;5095371;28;19920;-66
2021/07/21 07:41:22;;;;;;;;;;;11.90;92.70;;;;;;5091349;28;20009;-66
2021/07/21 07:43:49;;;;;;;;;;;11.90;92.90;;;;;;5092778;28;19986;-65
2021/07/21 07:46:17;;;;;;;;;;;12.00;93.10;;;;;;5092961;28;19912;-65
2021/07/21 07:48:43;;;;;;;;;;;11.90;93.40;;;;;;5092858;28;19935;-65
2021/07/21 07:51:10;;;;;;;;;;;11.90;93.50;;;;;;5092851;28;19912;-65
2021/07/21 07:53:37;;;;;;;;;;;11.90;93.90;;;;;;5092328;28;19915;-65
2021/07/21 07:56:04;;;;;;;;;;;11.80;94.30;;;;;;5092838;28;19974;-66
2021/07/21 07:58:31;;;;;;;;;;;11.80;94.30;;;;;;5092979;28;19916;-66
2021/07/21 08:00:57;;;;;;;;;;;11.80;94.50;;;;;;5092696;28;19908;-66
2021/07/21 08:03:24;;;;;;;;;;;11.80;94.70;;;;;;5092763;28;19909;-65
2021/07/21 08:05:54;;;;;;;;;;;11.80;95.10;;;;;;5092409;28;19908;-65
2021/07/21 08:08:21;;;;;;;;;;;11.80;95.20;;;;;;5092181;28;19998;-66
2021/07/21 08:10:48;;;;;;;;;;;11.70;95.40;;;;;;5092579;28;20286;-67
2021/07/21 08:13:14;;;;;;;;;;;11.70;95.60;;;;;;5092424;28;20297;-65
2021/07/21 08:15:41;;;;;;;;;;;11.70;95.60;;;;;;5092070;28;19923;-65
2021/07/21 08:18:08;;;;;;;;;;;11.70;95.70;;;;;;5092354;28;19916;-66
2021/07/21 08:20:35;;;;;;;;;;;11.70;95.90;;;;;;5092131;28;19978;-65
2021/07/21 08:23:01;;;;;;;;;;;11.70;96.10;;;;;;5092355;28;19908;-65
2021/07/21 08:25:28;;;;;;;;;;;11.70;96.10;;;;;;5092271;28;19955;-65
2021/07/21 08:27:55;;;;;;;;;;;11.80;96.00;;;;;;5092065;28;19977;-65
2021/07/21 08:30:22;;;;;;;;;;;11.70;96.40;;;;;;5071809;28;19909;-65
2021/07/21 08:32:50;;;;;;;;;;;11.70;96.30;;;;;;5071408;28;20007;-66
2021/07/21 08:35:22;;;;;;;;;;;11.70;96.50;;;;;;5071641;28;20470;-66
2021/07/21 08:37:48;;;;;;;;;;;11.70;96.80;;;;;;5071315;28;19969;-66
2021/07/21 08:40:16;;;;;;;;;;;11.60;96.90;;;;;;5071606;28;19919;-65
2021/07/21 08:42:43;;;;;;;;;;;11.60;97.00;;;;;;5071271;28;19915;-65
2021/07/21 08:45:10;;;;;;;;;;;11.60;97.20;;;;;;5071028;28;19916;-66
2021/07/21 08:47:37;;;;;;;;;;;11.60;97.30;;;;;;5071330;28;19956;-66
2021/07/21 08:50:05;;;;;;;;;;;11.60;97.30;;;;;;5071484;28;19909;-65
2021/07/21 08:52:32;;;;;;;;;;;11.50;97.40;;;;;;5071324;28;19916;-65
2021/07/21 08:54:58;;;;;;;;;;;11.50;97.60;;;;;;5071241;28;20062;-66
2021/07/21 08:57:28;;;;;;;;;;;11.50;97.60;;;;;;5071160;28;19921;-65
2021/07/21 08:59:56;;;;;;;;;;;11.50;97.60;;;;;;5070320;28;19912;-65
2021/07/21 09:02:23;;;;;;;;;;;11.50;97.70;;;;;;5071388;28;19913;-65
2021/07/21 09:04:50;;;;;;;;;;;11.50;98.10;;;;;;5071419;28;19916;-65
2021/07/21 09:07:17;;;;;;;;;;;11.50;98.20;;;;;;5073098;28;19915;-65
2021/07/21 09:09:44;;;;;;;;;;;11.50;98.20;;;;;;5072930;28;19912;-65
2021/07/21 09:12:11;;;;;;;;;;;11.40;98.30;;;;;;5073258;28;19915;-65
2021/07/21 09:14:41;;;;;;;;;;;11.40;98.50;;;;;;5072546;28;19962;-66
2021/07/21 09:17:12;;;;;;;;;;;11.40;98.70;;;;;;5072948;28;19916;-65
2021/07/21 09:19:42;;;;;;;;;;;11.30;98.80;;;;;;5072851;28;19943;-65
2021/07/21 09:22:15;;;;;;;;;;;11.40;98.30;;;;;;5072793;28;19908;-66
2021/07/21 09:24:43;;;;;;;;;;;11.40;98.40;;;;;;5073265;28;19954;-65
2021/07/21 09:27:10;;;;;;;;;;;11.30;98.60;;;;;;5072797;28;19971;-65
2021/07/21 09:29:39;;;;;;;;;;;11.20;98.30;;;;;;5072005;28;19958;-68
2021/07/21 09:32:06;;;;;;;;;;;11.20;98.20;;;;;;5072942;28;19912;-65
2021/07/21 09:34:34;;;;;;;;;;;11.20;98.50;;;;;;5072020;28;20003;-65
2021/07/21 09:37:12;;;;;;;;;;;11.20;98.40;;;;;;5072400;28;19917;-66
2021/07/21 09:39:39;;;;;;;;;;;11.20;98.40;;;;;;5072432;28;19908;-65
2021/07/21 09:42:06;;;;;;;;;;;11.20;98.50;;;;;;5071833;28;19908;-67
2021/07/21 09:44:34;;;;;;;;;;;11.20;98.90;;;;;;5071935;28;19988;-65
2021/07/21 09:47:11;;;;;;;;;;;11.10;99.20;;;;;;5072567;28;19915;-65
2021/07/21 09:49:37;;;;;;;;;;;11.10;99.20;;;;;;5072144;28;19913;-65
2021/07/21 09:52:39;;;;;;;;;;;11.10;99.40;;;;;;5072400;28;19954;-66
2021/07/21 09:55:10;;;;;;;;;;;11.10;99.40;;;;;;5050282;28;20410;-67
2021/07/21 09:57:37;;;;;;;;;;;11.00;99.40;;;;;;5067606;28;19944;-67
2021/07/21 10:00:19;;;;;;;;;;;11.00;99.50;;;;;;5072497;28;20399;-65
2021/07/21 10:02:47;;;;;;;;;;;10.90;99.60;;;;;;5072653;28;19908;-66
2021/07/21 10:05:14;;;;;;;;;;;10.90;99.90;;;;;;5072221;28;19912;-65
2021/07/21 10:07:49;;;;;;;;;;;11.00;99.90;;;;;;5072120;28;19944;-65
2021/07/21 10:10:19;;;;;;;;;;;10.90;99.90;;;;;;5072345;28;20418;-65
2021/07/21 10:13:07;;;;;;;;;;;10.90;99.90;;;;;;5074085;28;19908;-66
2021/07/21 10:15:34;;;;;;;;;;;10.80;99.90;;;;;;5072601;28;19954;-64
2021/07/21 10:18:11;;;;;;;;;;;10.80;99.90;;;;;;5072318;28;20023;-65
2021/07/21 10:20:39;;;;;;;;;;;10.80;99.90;;;;;;5072301;28;19908;-65
2021/07/21 10:23:07;;;;;;;;;;;10.70;99.90;;;;;;5072530;28;19909;-65
2021/07/21 10:25:35;;;;;;;;;;;10.70;99.90;;;;;;5072142;28;20351;-65
2021/07/21 10:28:01;;;;;;;;;;;10.70;99.90;;;;;;5072319;28;19915;-65
2021/07/21 10:30:30;;;;;;;;;;;10.70;99.90;;;;;;5072088;28;20034;-65
2021/07/21 10:32:57;;;;;;;;;;;10.60;99.90;;;;;;5072308;28;19995;-64
2021/07/21 10:35:26;;;;;;;;;;;10.70;99.90;;;;;;5072482;28;19916;-65
2021/07/21 10:37:53;;;;;;;;;;;10.60;99.90;;;;;;5071806;28;19916;-65
2021/07/21 10:40:21;;;;;;;;;;;10.60;99.90;;;;;;5104663;28;20385;-66
2021/07/21 10:42:50;;;;;;;;;;;10.60;99.90;;;;;;5072049;28;19962;-66
2021/07/21 10:45:18;;;;;;;;;;;10.60;99.90;;;;;;5072118;28;19948;-65
2021/07/21 10:47:46;;;;;;;;;;;10.60;99.90;;;;;;5071652;28;19916;-65
2021/07/21 10:50:37;;;;;;;;;;;10.60;99.90;;;;;;5072008;28;20282;-65
2021/07/21 10:53:25;;;;;;;;;;;10.60;99.90;;;;;;5072538;28;20390;-65
2021/07/21 10:59:11;;;;;;;;;;;10.50;99.90;;;;;;5075854;28;19917;-65
2021/07/21 11:01:24;;;;;;;;;;;10.50;99.90;;;;;;5076034;28;19979;-65
2021/07/21 11:04:01;;;;;;;;;;;10.50;99.90;;;;;;5072974;28;19912;-64
2021/07/21 11:06:50;;;;;;;;;;;10.50;99.90;;;;;;5072902;28;19912;-64
2021/07/21 11:09:19;;;;;;;;;;;10.40;99.90;;;;;;5073527;28;19944;-65
2021/07/21 11:11:46;;;;;;;;;;;10.40;99.90;;;;;;5072932;28;19916;-65
2021/07/21 11:14:17;;;;;;;;;;;10.40;99.70;;;;;;5073463;28;20286;-65
2021/07/21 11:16:50;;;;;;;;;;;10.30;99.80;;;;;;5072938;28;19998;-65
2021/07/21 11:19:28;;;;;;;;;;;10.30;99.90;;;;;;5073336;28;19999;-64
2021/07/21 11:22:14;;;;;;;;;;;10.30;99.90;;;;;;5072950;28;20386;-64
2021/07/21 11:24:59;;;;;;;;;;;10.20;99.90;;;;;;5069213;28;19939;-64
2021/07/21 11:27:44;;;;;;;;;;;10.20;99.90;;;;;;5073202;28;19951;-64
2021/07/21 11:30:29;;;;;;;;;;;10.20;99.90;;;;;;5073169;28;19932;-65
2021/07/21 11:32:56;;;;;;;;;;;10.20;99.90;;;;;;5073214;28;19915;-64
2021/07/21 11:35:40;;;;;;;;;;;10.20;99.90;;;;;;5072944;28;19909;-64
2021/07/21 11:38:20;;;;;;;;;;;10.20;99.90;;;;;;5073090;28;20059;-65
2021/07/21 11:40:47;;;;;;;;;;;10.20;99.80;;;;;;5077493;28;19909;-64
2021/07/21 11:43:32;;;;;;;;;;;10.20;99.90;;;;;;5072509;28;19993;-65
2021/07/21 11:46:06;;;;;;;;;;;10.10;99.90;;;;;;5072986;28;20275;-64
2021/07/21 11:48:35;;;;;;;;;;;10.10;99.90;;;;;;5074382;28;19931;-65
2021/07/21 11:51:09;;;;;;;;;;;10.10;99.50;;;;;;5105380;28;19923;-65
2021/07/21 11:53:36;;;;;;;;;;;10.10;99.40;;;;;;5072831;28;20377;-64
2021/07/21 11:56:08;;;;;;;;;;;10.00;99.10;;;;;;5072026;28;19920;-64
2021/07/21 11:58:36;;;;;;;;;;;10.10;99.10;;;;;;5072490;28;20418;-65
2021/07/21 12:01:05;;;;;;;;;;;10.00;98.90;;;;;;5104830;28;20298;-64
2021/07/21 12:03:52;;;;;;;;;;;10.00;99.00;;;;;;5072520;28;19923;-65
2021/07/21 12:06:25;;;;;;;;;;;10.00;99.10;;;;;;5071206;28;19908;-66
2021/07/21 12:08:55;;;;;;;;;;;10.00;99.30;;;;;;5070722;28;19915;-66
2021/07/21 12:11:23;;;;;;;;;;;10.00;99.40;;;;;;5072031;28;19919;-66
2021/07/21 12:14:00;;;;;;;;;;;9.90;99.10;;;;;;5072341;28;19912;-65
2021/07/21 12:16:27;;;;;;;;;;;9.80;99.20;;;;;;5072384;28;19923;-64
2021/07/21 12:19:00;;;;;;;;;;;9.80;99.20;;;;;;5072277;28;20348;-65
2021/07/21 12:21:29;;;;;;;;;;;9.80;99.50;;;;;;5071684;28;19920;-65
2021/07/21 12:24:02;;;;;;;;;;;9.70;99.20;;;;;;5072236;28;20531;-66
2021/07/21 12:26:39;;;;;;;;;;;9.70;99.90;;;;;;5071771;28;19916;-64
2021/07/21 12:29:06;;;;;;;;;;;9.80;99.90;;;;;;5072461;28;19919;-65
2021/07/21 12:31:32;;;;;;;;;;;9.80;99.60;;;;;;5071612;28;19913;-64
2021/07/21 12:34:12;;;;;;;;;;;9.70;99.60;;;;;;5070564;28;20367;-67
2021/07/21 12:36:45;;;;;;;;;;;9.70;99.60;;;;;;5071749;28;19921;-65
2021/07/21 12:39:13;;;;;;;;;;;9.60;99.80;;;;;;5071857;28;19922;-65
2021/07/21 12:41:40;;;;;;;;;;;9.60;99.90;;;;;;5071761;28;20147;-65
2021/07/21 12:44:14;;;;;;;;;;;9.60;99.90;;;;;;5104025;28;19925;-65
2021/07/21 12:46:40;;;;;;;;;;;9.50;99.90;;;;;;5070480;28;20762;-65
2021/07/21 12:49:07;;;;;;;;;;;9.50;99.90;;;;;;5071511;28;19962;-66
2021/07/21 12:51:37;;;;;;;;;;;9.40;99.90;;;;;;5071386;28;20406;-67
2021/07/21 12:54:05;;;;;;;;;;;9.30;99.90;;;;;;5071775;28;19908;-66
2021/07/21 12:56:31;;;;;;;;;;;9.20;99.90;;;;;;5071250;28;20017;-65
2021/07/21 12:59:24;;;;;;;;;;;9.20;99.90;;;;;;5071418;28;19908;-65
2021/07/21 13:01:51;;;;;;;;;;;9.20;99.90;;;;;;5069803;28;19908;-65
2021/07/21 13:04:29;;;;;;;;;;;9.10;99.90;;;;;;5070895;28;20420;-64
2021/07/21 13:07:06;;;;;;;;;;;9.10;99.90;;;;;;5071315;28;19916;-64
2021/07/21 13:09:38;;;;;;;;;;;9.10;99.90;;;;;;5071017;28;19913;-64
2021/07/21 13:12:14;;;;;;;;;;;9.00;99.90;;;;;;5071603;28;20386;-66
2021/07/21 13:14:41;;;;;;;;;;;9.00;99.90;;;;;;5071051;28;20634;-66
2021/07/21 13:17:09;;;;;;;;;;;9.00;99.90;;;;;;5070899;28;20370;-65
2021/07/21 13:19:37;;;;;;;;;;;9.10;99.90;;;;;;5070238;28;19917;-64
2021/07/21 13:22:04;;;;;;;;;;;9.10;99.90;;;;;;5071254;28;19916;-66
2021/07/21 13:24:39;;;;;;;;;;;9.10;99.90;;;;;;5071263;28;19908;-66
2021/07/21 13:27:06;;;;;;;;;;;9.20;99.90;;;;;;5072993;28;20394;-65
2021/07/21 13:29:34;;;;;;;;;;;9.10;99.90;;;;;;5069893;28;19921;-65
2021/07/21 13:32:05;;;;;;;;;;;9.10;99.90;;;;;;5070929;28;19908;-65
2021/07/21 13:34:36;;;;;;;;;;;9.00;99.90;;;;;;5070099;28;19908;-66
2021/07/21 13:37:04;;;;;;;;;;;9.00;99.90;;;;;;5070615;28;19970;-65
2021/07/21 13:39:40;;;;;;;;;;;9.10;99.90;;;;;;5070229;28;20402;-66
2021/07/21 13:42:13;;;;;;;;;;;9.00;99.90;;;;;;5070697;28;19916;-65
2021/07/21 13:44:39;;;;;;;;;;;9.10;99.90;;;;;;5070617;28;19932;-65
2021/07/21 13:47:06;;;;;;;;;;;9.00;99.90;;;;;;5070715;28;19913;-66
2021/07/21 13:49:42;;;;;;;;;;;9.00;99.90;;;;;;5070459;28;19934;-65
2021/07/21 13:52:10;;;;;;;;;;;9.00;99.90;;;;;;5070771;28;19912;-65
2021/07/21 13:54:39;;;;;;;;;;;9.00;99.90;;;;;;5070307;28;19957;-65
2021/07/21 13:57:07;;;;;;;;;;;9.00;99.70;;;;;;5070534;28;19920;-65
2021/07/21 13:59:37;;;;;;;;;;;8.90;99.70;;;;;;5070423;28;19913;-66
2021/07/21 14:02:05;;;;;;;;;;;8.90;99.90;;;;;;5070441;28;19908;-66
2021/07/21 14:04:32;;;;;;;;;;;8.90;99.80;;;;;;5070699;28;20403;-64
2021/07/21 14:06:59;;;;;;;;;;;8.90;99.70;;;;;;5070066;28;19912;-65
2021/07/21 14:09:26;;;;;;;;;;;8.90;99.90;;;;;;5070647;28;19917;-65
2021/07/21 14:11:53;;;;;;;;;;;8.90;99.90;;;;;;5070148;28;19908;-65
2021/07/21 14:14:21;;;;;;;;;;;8.90;99.90;;;;;;5070240;28;19909;-64
2021/07/21 14:16:49;;;;;;;;;;;8.80;99.70;;;;;;5070221;28;19920;-64
2021/07/21 14:19:15;;;;;;;;;;;8.90;99.70;;;;;;5069848;28;19956;-66
2021/07/21 14:21:53;;;;;;;;;;;8.90;99.60;;;;;;5070171;28;19916;-65
2021/07/21 14:24:20;;;;;;;;;;;8.90;99.90;;;;;;5070245;28;19966;-65
2021/07/21 14:26:47;;;;;;;;;;;8.90;99.80;;;;;;5070086;28;19908;-64
2021/07/21 14:29:16;;;;;;;;;;;8.90;99.90;;;;;;5072828;28;20331;-64
2021/07/21 14:31:43;;;;;;;;;;;8.80;99.60;;;;;;5073808;28;20426;-65
2021/07/21 14:34:13;;;;;;;;;;;8.80;99.40;;;;;;5074217;28;19966;-65